Buckland, AK

6:40 PM AKDT on July 25, 2016 (GMT -0800)
Buckland | | Change Station

Elev 30 ft 65.98 °N, 161.15 °W | Updated 4 minutes ago

Clear
Clear
70 °F
Feels Like 70 °F
N
12
Wind Variable Wind from North

Today
High -- | Low -- °F
--% Chance of Precip.
Yesterday
High -- | Low -- °F
Precip. -- in
Pressure 29.77 in
Visibility 10.0 miles
Clouds Clear
Dew Point 46 °F
Humidity 43%
Rainfall 0.00 in
Snow Depth Not available.
5:06 AM 0:33 AM
Waning Gibbous, 60% visible
METAR PABL 260236Z AUTO 35010KT 10SM CLR 21/08 A2977 RMK AO1
Pressure 29.77 in
Visibility 10.0 miles
Clouds Clear
Dew Point 46 °F
Humidity 43%
Rainfall 0.00 in
Snow Depth Not available.
5:06 AM 0:33 AM
Waning Gibbous, 60% visible
METAR PABL 260236Z AUTO 35010KT 10SM CLR 21/08 A2977 RMK AO1

10-Day Weather Forecast

Almanac

Astronomy

Jul. 25, 2016 Rise Set
Actual Time
Civil Twilight
Nautical Twilight
Astronomical Twilight
Moon
Length of Visible Light
Length of Day
Tomorrow will be .
, % of the Moon is Illuminated

Today's Extremes

State Highs State Lows

Community

WunderPhotos

Upload Photos

1,927,505 photos uploaded!

WunderBlog® & News

Nearby

Air Quality

  Air Quality AQ Index Pollutant
Not available.

Snow Depth

Station Depth Elevation

Earthquake Activity

City Distance Mag. Time & Date
Minimum magnitude displayed is 2.5.

Coastal Water Temperatures

Place Temperature

Stations

Nearby Weather Stations

Station Location Temp. Windchill Dew Point Humidity Wind Precip. Elev Updated Type
                   

Watches & Warnings

There are currently no watches in effect.